createdAt,value
2018-12-13T00:00:25.096Z,77.47
2018-12-13T00:09:26.409Z,77.82
2018-12-13T00:11:57.156Z,77.76
2018-12-13T00:14:27.828Z,76.96
2018-12-13T00:16:58.447Z,77.04
2018-12-13T00:19:29.049Z,76.58
2018-12-13T00:21:59.924Z,76.44
2018-12-13T00:24:30.772Z,75.75
2018-12-13T00:27:01.317Z,76.66
2018-12-13T00:29:31.909Z,76.33
2018-12-13T00:32:02.480Z,76.47
2018-12-13T00:34:33.026Z,77.15
2018-12-13T00:37:03.605Z,76.37
2018-12-13T00:39:34.270Z,74.92
2018-12-13T00:42:04.846Z,74.42
2018-12-13T00:44:35.489Z,75.27
2018-12-13T00:47:06.164Z,76.78
2018-12-13T00:49:36.763Z,77.12
2018-12-13T00:52:07.290Z,75.71
2018-12-13T00:54:37.826Z,75.75
2018-12-13T00:57:08.352Z,77.46
2018-12-13T00:59:39.008Z,77.81
2018-12-13T01:02:09.546Z,78.31
2018-12-13T01:04:40.348Z,78.09
2018-12-13T01:07:11.376Z,78.43
2018-12-13T01:09:42.070Z,78.10
2018-12-13T01:12:12.579Z,78.74
2018-12-13T01:14:43.118Z,77.73
2018-12-13T01:17:13.646Z,77.98
2018-12-13T01:19:44.176Z,77.34
2018-12-13T01:22:14.647Z,76.90
2018-12-13T01:24:45.140Z,77.53
2018-12-13T01:27:15.701Z,76.95
2018-12-13T01:29:46.212Z,76.94
2018-12-13T01:32:16.754Z,76.48
2018-12-13T01:34:47.296Z,76.30
2018-12-13T01:37:17.807Z,75.63
2018-12-13T01:39:48.358Z,75.16
2018-12-13T01:42:18.942Z,76.03
2018-12-13T01:44:49.563Z,76.42
2018-12-13T01:47:20.509Z,76.89
2018-12-13T01:49:51.049Z,76.67
2018-12-13T01:52:21.614Z,76.53
2018-12-13T01:54:52.176Z,75.53
2018-12-13T01:57:22.809Z,77.04
2018-12-13T01:59:53.274Z,77.22
2018-12-13T02:02:23.780Z,77.54
2018-12-13T02:04:54.335Z,78.06
2018-12-13T02:07:24.905Z,78.11
2018-12-13T02:09:55.506Z,76.58
2018-12-13T02:12:26.078Z,76.49
2018-12-13T02:14:56.641Z,77.78
2018-12-13T02:17:27.190Z,78.37
2018-12-13T02:19:57.714Z,78.36
2018-12-13T02:22:28.284Z,78.20
2018-12-13T02:24:58.993Z,79.11
2018-12-13T02:27:29.517Z,78.71
2018-12-13T02:30:00.118Z,78.30
2018-12-13T02:32:30.683Z,79.21
2018-12-13T02:35:01.717Z,78.02
2018-12-13T02:37:32.751Z,78.37
2018-12-13T02:40:03.377Z,77.76
2018-12-13T02:42:33.990Z,78.43
2018-12-13T02:45:04.577Z,79.67
2018-12-13T02:47:35.273Z,79.65
2018-12-13T02:50:07.133Z,78.97
2018-12-13T02:52:37.824Z,80.04
2018-12-13T02:55:08.389Z,79.59
2018-12-13T02:57:38.970Z,79.63
2018-12-13T03:00:09.603Z,79.42
2018-12-13T03:02:42.230Z,78.76
2018-12-13T03:05:12.922Z,78.98
2018-12-13T03:07:43.481Z,78.09
2018-12-13T03:10:14.040Z,78.17
2018-12-13T03:12:45.244Z,77.58
2018-12-13T03:15:15.778Z,77.95
2018-12-13T03:17:46.338Z,78.82
2018-12-13T03:20:16.946Z,78.26
2018-12-13T03:22:47.470Z,77.65
2018-12-13T03:25:18.017Z,77.39
2018-12-13T03:27:48.545Z,77.12
2018-12-13T03:30:19.183Z,77.30
2018-12-13T03:32:49.966Z,77.70
2018-12-13T03:35:20.513Z,76.93
2018-12-13T03:37:53.070Z,76.61
2018-12-13T03:40:23.620Z,77.20
2018-12-13T03:42:54.346Z,76.37
2018-12-13T03:45:24.894Z,77.43
2018-12-13T03:47:55.386Z,77.27
2018-12-13T03:50:25.937Z,76.61
2018-12-13T03:52:56.487Z,76.33
2018-12-13T03:55:27.030Z,76.42
2018-12-13T03:57:57.579Z,76.98
2018-12-13T04:00:28.219Z,75.79
2018-12-13T04:02:58.761Z,77.07
2018-12-13T04:05:29.329Z,77.57
2018-12-13T04:08:01.008Z,76.21
2018-12-13T04:10:31.659Z,76.12
2018-12-13T04:13:02.218Z,75.43
2018-12-13T04:15:32.950Z,75.56
2018-12-13T04:18:03.527Z,76.14
2018-12-13T04:20:36.082Z,76.85
2018-12-13T04:23:06.721Z,76.79
2018-12-13T04:25:37.310Z,76.84
2018-12-13T04:28:07.911Z,76.18
2018-12-13T04:30:38.444Z,75.92
2018-12-13T04:33:08.949Z,76.26
2018-12-13T04:35:39.476Z,77.21
2018-12-13T04:38:10.005Z,75.86
2018-12-13T04:40:40.577Z,75.15
2018-12-13T04:43:11.166Z,75.66
2018-12-13T04:45:41.797Z,77.09
2018-12-13T04:48:12.343Z,75.93
2018-12-13T04:50:42.867Z,76.67
2018-12-13T04:53:13.425Z,76.94
2018-12-13T04:55:43.992Z,76.97
2018-12-13T04:58:14.535Z,76.58
2018-12-13T05:00:45.293Z,76.69
2018-12-13T05:03:15.802Z,76.60
2018-12-13T05:05:46.418Z,76.01
2018-12-13T05:08:17.941Z,76.43
2018-12-13T05:10:54.533Z,77.10
2018-12-13T05:13:25.183Z,75.98
2018-12-13T05:15:55.696Z,75.57
2018-12-13T05:18:26.282Z,76.20
2018-12-13T05:20:56.785Z,76.92
2018-12-13T05:23:27.274Z,77.06
2018-12-13T05:25:57.827Z,76.09
2018-12-13T05:28:28.381Z,75.82
2018-12-13T05:30:58.914Z,75.80
2018-12-13T05:33:29.480Z,76.04
2018-12-13T05:35:59.991Z,75.74
2018-12-13T05:38:30.574Z,76.06
2018-12-13T05:41:01.260Z,76.69
2018-12-13T05:43:31.798Z,76.01
2018-12-13T05:46:02.569Z,76.47
2018-12-13T05:48:33.224Z,76.68
2018-12-13T05:51:04.098Z,78.53
2018-12-13T05:53:34.600Z,75.48
2018-12-13T05:56:05.262Z,75.00
2018-12-13T05:58:35.829Z,74.13
2018-12-13T06:01:06.468Z,75.50
2018-12-13T06:03:37.017Z,74.82
2018-12-13T06:06:07.610Z,74.59
2018-12-13T06:08:38.274Z,74.80
2018-12-13T06:11:09.194Z,75.53
2018-12-13T06:13:39.827Z,77.10
2018-12-13T06:16:10.356Z,77.02
2018-12-13T06:18:41.023Z,77.88
2018-12-13T06:21:11.901Z,78.51
2018-12-13T06:23:42.770Z,78.56
2018-12-13T06:26:13.355Z,78.59
2018-12-13T06:28:44.517Z,79.01
2018-12-13T06:31:15.207Z,78.71
2018-12-13T06:33:45.863Z,78.58
2018-12-13T06:36:17.204Z,78.37
2018-12-13T06:38:47.890Z,78.79
2018-12-13T06:41:18.671Z,78.78
2018-12-13T06:43:49.363Z,79.97
2018-12-13T06:46:19.935Z,79.37
2018-12-13T06:48:50.580Z,79.72
2018-12-13T06:51:21.298Z,78.91
2018-12-13T06:53:51.900Z,77.56
2018-12-13T06:56:22.655Z,78.03
2018-12-13T06:58:53.238Z,76.83
2018-12-13T07:01:23.966Z,76.98
2018-12-13T07:03:54.639Z,76.91
2018-12-13T07:06:25.307Z,75.95
2018-12-13T07:08:55.897Z,76.12
2018-12-13T07:11:26.692Z,76.58
2018-12-13T07:13:57.362Z,76.43
2018-12-13T07:16:29.957Z,76.57
2018-12-13T07:19:00.788Z,75.42
2018-12-13T07:21:31.908Z,75.57
2018-12-13T07:24:02.726Z,75.62
2018-12-13T07:26:33.394Z,75.93
2018-12-13T07:32:10.115Z,76.52
2018-12-13T07:34:41.541Z,75.55
2018-12-13T07:37:14.915Z,75.27
2018-12-13T07:39:45.530Z,76.62
2018-12-13T07:42:16.451Z,75.34
2018-12-13T07:44:47.138Z,74.86
2018-12-13T07:47:17.813Z,75.03
2018-12-13T07:49:48.464Z,74.73
2018-12-13T07:52:19.147Z,74.21
2018-12-13T07:54:49.754Z,74.49
2018-12-13T07:57:20.409Z,74.68
2018-12-13T07:59:51.201Z,74.48
2018-12-13T08:02:21.835Z,74.53
2018-12-13T08:04:52.518Z,74.27
2018-12-13T08:07:23.104Z,73.81
2018-12-13T08:09:53.775Z,74.04
2018-12-13T08:12:24.544Z,74.03
2018-12-13T08:14:55.053Z,75.92
2018-12-13T08:17:25.593Z,74.15
2018-12-13T08:19:58.196Z,74.47
2018-12-13T08:22:28.763Z,74.78
2018-12-13T08:24:59.399Z,74.27
2018-12-13T08:27:29.911Z,74.67
2018-12-13T08:30:00.553Z,74.99
2018-12-13T08:32:31.150Z,74.48
2018-12-13T08:35:01.692Z,74.88
2018-12-13T08:37:32.282Z,73.99
2018-12-13T08:40:02.899Z,73.94
2018-12-13T08:42:34.844Z,74.94
2018-12-13T08:45:05.713Z,73.64
2018-12-13T08:50:23.190Z,73.53
2018-12-13T08:52:54.177Z,74.34
2018-12-13T08:55:24.686Z,73.02
2018-12-13T08:57:55.279Z,74.06
2018-12-13T09:00:25.789Z,72.89
2018-12-13T09:02:56.298Z,72.48
2018-12-13T09:05:26.886Z,72.47
2018-12-13T09:07:57.358Z,71.65
2018-12-13T09:10:27.903Z,73.19
2018-12-13T09:12:58.615Z,71.54
2018-12-13T09:15:29.574Z,71.85
2018-12-13T09:18:00.200Z,70.95
2018-12-13T09:20:30.718Z,70.47
2018-12-13T09:23:01.298Z,69.50
2018-12-13T09:25:31.959Z,69.75
2018-12-13T09:28:02.585Z,70.37
2018-12-13T09:30:33.529Z,70.03
2018-12-13T09:33:04.531Z,69.52
2018-12-13T09:35:35.229Z,69.72
2018-12-13T09:38:06.559Z,69.21
2018-12-13T09:40:37.132Z,69.48
2018-12-13T09:43:07.732Z,69.28
2018-12-13T09:45:38.247Z,69.21
2018-12-13T09:48:08.783Z,69.69
2018-12-13T09:50:39.559Z,69.98
2018-12-13T09:53:11.716Z,68.12
2018-12-13T09:55:42.203Z,68.39
2018-12-13T09:58:12.866Z,66.91
2018-12-13T10:00:43.392Z,65.69
2018-12-13T10:03:15.077Z,65.80
2018-12-13T10:05:45.647Z,66.11
2018-12-13T10:08:16.557Z,66.04
2018-12-13T10:10:47.085Z,66.56
2018-12-13T10:13:17.800Z,66.86
2018-12-13T10:15:48.270Z,65.82
2018-12-13T10:18:18.852Z,66.09
2018-12-13T10:20:49.361Z,66.11
2018-12-13T10:23:19.976Z,66.90
2018-12-13T10:25:50.790Z,67.42
2018-12-13T10:28:21.421Z,66.10
2018-12-13T10:30:51.968Z,66.57
2018-12-13T10:33:22.452Z,67.08
2018-12-13T10:35:53.014Z,66.79
2018-12-13T10:38:23.523Z,66.77
2018-12-13T10:40:54.088Z,66.85
2018-12-13T10:43:24.893Z,66.82
2018-12-13T10:45:55.429Z,66.85
2018-12-13T10:48:25.977Z,67.27
2018-12-13T10:50:56.626Z,66.72
2018-12-13T10:53:27.216Z,66.62
2018-12-13T10:55:57.799Z,67.40
2018-12-13T10:58:28.351Z,66.61
2018-12-13T11:01:04.028Z,67.74
2018-12-13T11:03:36.516Z,67.42
2018-12-13T11:06:07.070Z,67.31
2018-12-13T11:08:37.540Z,66.92
2018-12-13T11:11:08.098Z,68.26
2018-12-13T11:13:38.584Z,68.13
2018-12-13T11:16:09.117Z,67.98
2018-12-13T11:18:39.627Z,67.79
2018-12-13T11:21:10.166Z,67.00
2018-12-13T11:23:40.672Z,66.25
2018-12-13T11:26:11.156Z,65.84
2018-12-13T11:29:57.247Z,65.11
2018-12-13T11:32:27.771Z,66.26
2018-12-13T11:34:58.290Z,65.94
2018-12-13T11:37:30.024Z,65.59
2018-12-13T11:40:00.519Z,64.02
2018-12-13T11:42:31.014Z,63.79
2018-12-13T11:45:01.562Z,63.65
2018-12-13T11:47:32.571Z,63.63
2018-12-13T11:50:03.119Z,64.46
2018-12-13T11:52:33.645Z,63.42
2018-12-13T11:55:16.510Z,63.22
2018-12-13T11:57:48.150Z,63.55
2018-12-13T12:00:19.100Z,63.51
2018-12-13T12:02:50.712Z,63.79
2018-12-13T12:05:21.243Z,63.89
2018-12-13T12:07:51.729Z,64.35
2018-12-13T12:10:22.293Z,63.65
2018-12-13T12:12:52.800Z,64.45
2018-12-13T12:15:23.309Z,65.13
2018-12-13T12:17:53.874Z,65.50
2018-12-13T12:20:24.507Z,63.16
2018-12-13T12:22:54.994Z,63.84
2018-12-13T12:25:25.816Z,64.17
2018-12-13T12:27:57.502Z,65.89
2018-12-13T12:30:28.279Z,64.54
2018-12-13T12:32:58.726Z,65.49
2018-12-13T12:35:29.243Z,65.94
2018-12-13T12:37:59.719Z,64.75
2018-12-13T12:40:30.178Z,65.48
2018-12-13T12:43:00.717Z,64.59
2018-12-13T12:45:31.265Z,64.61
2018-12-13T12:48:01.947Z,64.20
2018-12-13T12:50:32.557Z,64.27
2018-12-13T12:53:03.141Z,64.23
2018-12-13T12:55:33.836Z,64.02
2018-12-13T12:58:04.539Z,63.53
2018-12-13T13:00:35.125Z,64.77
2018-12-13T13:03:05.703Z,65.21
2018-12-13T13:05:36.207Z,64.84
2018-12-13T13:08:06.720Z,65.13
2018-12-13T13:10:37.231Z,65.23
2018-12-13T13:13:07.761Z,64.24
2018-12-13T13:15:38.255Z,64.91
2018-12-13T13:18:08.836Z,65.21
2018-12-13T13:20:39.514Z,65.16
2018-12-13T13:23:10.098Z,65.55
2018-12-13T13:25:40.634Z,66.30
2018-12-13T13:28:11.226Z,65.75
2018-12-13T13:30:41.885Z,65.37
2018-12-13T13:33:15.383Z,66.44
2018-12-13T13:35:45.961Z,65.56
2018-12-13T13:38:16.489Z,65.96
2018-12-13T13:40:48.074Z,65.26
2018-12-13T13:43:18.744Z,64.71
2018-12-13T13:45:49.287Z,65.50
2018-12-13T13:48:20.529Z,64.19
2018-12-13T13:50:53.045Z,63.92
2018-12-13T13:53:23.551Z,64.20
2018-12-13T13:55:54.100Z,64.71
2018-12-13T13:58:25.612Z,65.58
2018-12-13T14:00:57.503Z,65.85
2018-12-13T14:03:29.088Z,66.32
2018-12-13T14:05:59.856Z,65.83
2018-12-13T14:08:32.423Z,65.27
2018-12-13T14:11:04.250Z,65.92
2018-12-13T14:13:35.083Z,66.37
2018-12-13T14:16:06.622Z,66.40
2018-12-13T14:18:38.814Z,67.10
2018-12-13T14:21:10.670Z,67.21
2018-12-13T14:23:43.747Z,65.11
2018-12-13T14:26:16.217Z,65.39
2018-12-13T14:28:46.839Z,66.01
2018-12-13T14:31:17.454Z,65.77
2018-12-13T14:33:48.070Z,65.46
2018-12-13T14:36:19.023Z,64.04
2018-12-13T14:38:49.593Z,63.43
2018-12-13T14:41:22.654Z,64.17
2018-12-13T14:44:12.400Z,64.90
2018-12-13T14:46:42.896Z,64.14
2018-12-13T14:49:13.717Z,64.19
2018-12-13T14:54:31.837Z,63.95
2018-12-13T14:57:03.110Z,63.22
2018-12-13T14:59:33.950Z,63.77
2018-12-13T15:02:05.985Z,63.94
2018-12-13T15:04:37.619Z,65.14
2018-12-13T15:07:09.902Z,63.90
2018-12-13T15:09:40.592Z,64.22
2018-12-13T15:12:11.409Z,65.37
2018-12-13T15:14:42.383Z,63.64
2018-12-13T15:17:13.015Z,64.06
2018-12-13T15:19:43.530Z,63.86
2018-12-13T15:22:14.179Z,62.90
2018-12-13T15:24:44.869Z,63.25
2018-12-13T15:27:15.483Z,65.66
2018-12-13T15:29:46.156Z,64.89
2018-12-13T15:32:16.982Z,63.50
2018-12-13T15:34:47.461Z,63.72
2018-12-13T15:37:18.017Z,63.48
2018-12-13T15:39:48.831Z,64.57
2018-12-13T15:42:19.507Z,64.50
2018-12-13T15:44:50.266Z,63.90
2018-12-13T15:47:20.975Z,63.39
2018-12-13T15:49:51.638Z,62.99
2018-12-13T15:52:22.418Z,64.15
2018-12-13T15:54:53.437Z,64.14
2018-12-13T15:57:25.231Z,63.91
2018-12-13T15:59:55.964Z,64.63
2018-12-13T16:02:28.581Z,64.37
2018-12-13T16:04:59.399Z,63.95
2018-12-13T16:07:30.164Z,66.07
2018-12-13T16:10:04.107Z,66.58
2018-12-13T16:12:34.046Z,66.39
2018-12-13T16:15:07.207Z,64.93
2018-12-13T16:17:38.014Z,64.68
2018-12-13T16:20:08.722Z,66.39
2018-12-13T16:22:45.906Z,67.46
2018-12-13T16:25:16.566Z,66.14
2018-12-13T16:27:47.376Z,64.57
2018-12-13T16:30:18.670Z,63.02
2018-12-13T16:32:50.421Z,64.13
2018-12-13T16:35:21.256Z,65.58
2018-12-13T16:37:52.086Z,65.30
2018-12-13T16:40:22.888Z,64.30
2018-12-13T16:42:53.723Z,65.38
2018-12-13T16:45:24.666Z,64.78
2018-12-13T16:47:55.532Z,64.93
2018-12-13T16:50:28.199Z,63.85
2018-12-13T16:53:00.399Z,63.74
2018-12-13T16:55:31.278Z,62.87
2018-12-13T16:58:02.360Z,64.46
2018-12-13T17:00:32.990Z,65.33
2018-12-13T17:03:19.491Z,67.09
2018-12-13T17:05:52.579Z,67.68
2018-12-13T17:08:23.884Z,66.07
2018-12-13T17:10:56.448Z,66.75
2018-12-13T17:13:27.398Z,67.24
2018-12-13T17:15:58.080Z,67.04
2018-12-13T17:18:28.960Z,66.85
2018-12-13T17:20:59.695Z,67.51
2018-12-13T17:23:30.485Z,66.13
2018-12-13T17:26:01.223Z,65.84
2018-12-13T17:28:33.378Z,67.62
2018-12-13T17:31:04.471Z,66.54
2018-12-13T17:33:35.387Z,65.76
2018-12-13T17:36:07.254Z,66.85
2018-12-13T17:38:38.207Z,68.02
2018-12-13T17:41:09.968Z,66.37
2018-12-13T17:43:41.648Z,66.37
2018-12-13T17:46:12.934Z,67.97
2018-12-13T17:48:43.641Z,66.83
2018-12-13T17:51:14.816Z,67.73
2018-12-13T17:53:45.487Z,66.60
2018-12-13T17:56:16.466Z,66.92
2018-12-13T17:58:46.991Z,67.29
2018-12-13T18:01:18.019Z,67.65
2018-12-13T18:03:49.065Z,67.51
2018-12-13T18:06:22.218Z,67.43
2018-12-13T18:08:53.030Z,65.89
2018-12-13T18:11:24.371Z,65.80
2018-12-13T18:13:56.625Z,68.03
2018-12-13T18:16:27.506Z,66.41
2018-12-13T18:18:58.602Z,66.06
2018-12-13T18:21:29.519Z,68.03
2018-12-13T18:24:00.598Z,67.12
2018-12-13T18:26:31.914Z,67.42
2018-12-13T18:29:02.791Z,66.36
2018-12-13T18:31:33.648Z,67.18
2018-12-13T18:34:04.970Z,67.69
2018-12-13T18:36:35.731Z,66.99
2018-12-13T18:39:08.926Z,68.15
2018-12-13T18:41:40.198Z,67.62
2018-12-13T18:44:11.090Z,67.89
2018-12-13T18:46:42.026Z,67.69
2018-12-13T18:49:12.717Z,67.55
2018-12-13T18:51:43.290Z,67.38
2018-12-13T18:54:14.768Z,68.04
2018-12-13T18:56:46.661Z,67.18
2018-12-13T18:59:17.338Z,67.38
2018-12-13T19:01:48.005Z,67.94
2018-12-13T19:04:18.673Z,67.70
2018-12-13T19:06:49.450Z,67.35
2018-12-13T19:09:20.199Z,68.91
2018-12-13T19:11:51.499Z,68.85
2018-12-13T19:14:22.159Z,68.20
2018-12-13T19:16:53.666Z,68.48
2018-12-13T19:19:24.374Z,68.67
2018-12-13T19:21:55.032Z,67.62
2018-12-13T19:24:25.742Z,69.76
2018-12-13T19:29:44.421Z,68.63
2018-12-13T19:32:15.455Z,68.36
2018-12-13T19:34:46.114Z,68.96
2018-12-13T19:37:16.886Z,68.13
2018-12-13T19:39:47.977Z,68.03
2018-12-13T19:42:18.694Z,68.17
2018-12-13T19:44:51.026Z,69.75
2018-12-13T19:47:22.264Z,69.41
2018-12-13T19:49:54.573Z,69.51
2018-12-13T19:52:27.198Z,68.56
2018-12-13T19:54:58.022Z,69.28
2018-12-13T19:57:28.629Z,68.45
2018-12-13T19:59:59.288Z,69.18
2018-12-13T20:02:30.086Z,69.43
2018-12-13T20:05:01.090Z,69.36
2018-12-13T20:07:32.083Z,69.58
2018-12-13T20:10:02.851Z,69.32
2018-12-13T20:12:33.639Z,70.27
2018-12-13T20:15:04.264Z,68.73
2018-12-13T20:17:35.427Z,67.08
2018-12-13T20:20:07.048Z,67.29
2018-12-13T20:22:38.329Z,67.71
2018-12-13T20:25:10.013Z,68.31
2018-12-13T20:27:40.575Z,68.83
2018-12-13T20:30:11.136Z,68.72
2018-12-13T20:32:41.758Z,66.66
2018-12-13T20:35:12.812Z,67.01
2018-12-13T20:37:43.528Z,67.04
2018-12-13T20:40:14.235Z,67.14
2018-12-13T20:42:44.737Z,67.33
2018-12-13T20:45:15.725Z,67.36
2018-12-13T20:47:47.425Z,67.91
2018-12-13T20:50:18.880Z,67.25
2018-12-13T20:52:49.519Z,66.53
2018-12-13T20:55:21.013Z,67.24
2018-12-13T20:57:51.736Z,66.32
2018-12-13T21:00:22.874Z,65.32
2018-12-13T21:02:53.482Z,66.75
2018-12-13T21:05:24.102Z,66.34
2018-12-13T21:07:59.119Z,67.31
2018-12-13T21:10:30.349Z,65.78
2018-12-13T21:13:00.893Z,66.83
2018-12-13T21:15:31.517Z,65.83
2018-12-13T21:18:02.494Z,65.92
2018-12-13T21:20:32.997Z,66.36
2018-12-13T21:23:03.862Z,65.38
2018-12-13T21:25:34.884Z,66.33
2018-12-13T21:28:05.674Z,67.12
2018-12-13T21:30:36.298Z,67.34
2018-12-13T21:33:06.959Z,67.52
2018-12-13T21:35:37.733Z,67.33
2018-12-13T21:38:09.355Z,68.62
2018-12-13T21:40:41.829Z,67.69
2018-12-13T21:43:12.662Z,67.93
2018-12-13T21:45:43.251Z,68.48
2018-12-13T21:48:14.029Z,67.71
2018-12-13T21:50:44.843Z,68.56
2018-12-13T21:53:15.598Z,67.78
2018-12-13T21:55:47.529Z,67.75
2018-12-13T21:58:18.199Z,68.35
2018-12-13T22:00:49.595Z,68.87
2018-12-13T22:03:28.701Z,67.80
2018-12-13T22:06:00.696Z,67.37
2018-12-13T22:08:31.656Z,68.32
2018-12-13T22:11:02.447Z,68.28
2018-12-13T22:13:33.381Z,68.30
2018-12-13T22:16:04.140Z,69.11
2018-12-13T22:18:35.954Z,69.62
2018-12-13T22:21:06.737Z,69.10
2018-12-13T22:23:37.336Z,69.11
2018-12-13T22:26:09.038Z,69.05
2018-12-13T22:28:46.224Z,69.15
2018-12-13T22:31:17.762Z,69.20
2018-12-13T22:33:48.329Z,69.28
2018-12-13T22:36:18.962Z,68.92
2018-12-13T22:38:50.178Z,67.67
2018-12-13T22:41:26.186Z,67.41
2018-12-13T22:43:53.723Z,66.37
2018-12-13T22:46:24.260Z,68.16
2018-12-13T22:48:54.782Z,68.97
2018-12-13T22:51:25.350Z,69.02
2018-12-13T22:53:55.899Z,67.93
2018-12-13T22:56:26.430Z,69.17
2018-12-13T22:58:56.955Z,68.46
2018-12-13T23:01:27.465Z,70.04
2018-12-13T23:03:58.174Z,69.14
2018-12-13T23:06:28.747Z,68.52
2018-12-13T23:08:59.303Z,67.97
2018-12-13T23:11:32.658Z,67.93
2018-12-13T23:14:03.578Z,68.10
2018-12-13T23:16:34.183Z,68.04
2018-12-13T23:19:04.830Z,68.23
2018-12-13T23:21:35.421Z,68.88
2018-12-13T23:24:06.196Z,68.30
2018-12-13T23:26:37.040Z,68.24
2018-12-13T23:29:07.887Z,67.88
2018-12-13T23:31:38.363Z,69.64
2018-12-13T23:34:08.910Z,68.34
2018-12-13T23:36:39.475Z,67.87
2018-12-13T23:39:10.146Z,68.50
2018-12-13T23:41:40.948Z,68.81
2018-12-13T23:44:11.614Z,67.91
2018-12-13T23:46:42.151Z,68.89
2018-12-13T23:49:12.769Z,68.27
2018-12-13T23:51:43.750Z,68.68
2018-12-13T23:54:14.452Z,69.25
2018-12-13T23:56:45.000Z,69.01
2018-12-13T23:59:17.756Z,68.96
